sensor_id;sensor_type;location;lat;lon;timestamp;P1;durP1;ratioP1;P2;durP2;ratioP2
39740;SDS011;25426;53.478;10.190;2023-09-18T06:00:09;9.10;;;8.20;;
39740;SDS011;25426;53.478;10.190;2023-09-18T06:02:44;11.98;;;8.70;;
39740;SDS011;25426;53.478;10.190;2023-09-18T06:05:15;9.98;;;8.90;;
39740;SDS011;25426;53.478;10.190;2023-09-18T06:07:53;9.02;;;8.23;;
39740;SDS011;25426;53.478;10.190;2023-09-18T06:10:24;9.88;;;7.72;;
39740;SDS011;25426;53.478;10.190;2023-09-18T06:12:55;8.90;;;8.13;;
39740;SDS011;25426;53.478;10.190;2023-09-18T06:15:34;9.02;;;8.23;;
39740;SDS011;25426;53.478;10.190;2023-09-18T06:18:05;9.27;;;7.68;;
39740;SDS011;25426;53.478;10.190;2023-09-18T06:20:42;8.73;;;7.35;;
39740;SDS011;25426;53.478;10.190;2023-09-18T06:23:22;7.90;;;7.20;;
39740;SDS011;25426;53.478;10.190;2023-09-18T06:25:53;10.38;;;7.72;;
39740;SDS011;25426;53.478;10.190;2023-09-18T06:28:26;8.85;;;7.95;;
39740;SDS011;25426;53.478;10.190;2023-09-18T06:31:03;11.32;;;7.20;;
39740;SDS011;25426;53.478;10.190;2023-09-18T06:33:34;8.38;;;7.38;;
39740;SDS011;25426;53.478;10.190;2023-09-18T06:36:05;8.63;;;7.30;;
39740;SDS011;25426;53.478;10.190;2023-09-18T06:38:52;6.78;;;6.20;;
39740;SDS011;25426;53.478;10.190;2023-09-18T07:03:35;7.68;;;6.78;;
39740;SDS011;25426;53.478;10.190;2023-09-18T07:06:06;8.13;;;6.93;;
39740;SDS011;25426;53.478;10.190;2023-09-18T07:08:37;7.45;;;6.75;;
39740;SDS011;25426;53.478;10.190;2023-09-18T07:11:08;9.43;;;7.18;;
39740;SDS011;25426;53.478;10.190;2023-09-18T07:13:42;6.80;;;6.28;;
39740;SDS011;25426;53.478;10.190;2023-09-18T07:16:13;7.40;;;6.80;;
39740;SDS011;25426;53.478;10.190;2023-09-18T07:18:44;7.55;;;6.72;;
39740;SDS011;25426;53.478;10.190;2023-09-18T07:21:15;6.65;;;6.15;;
39740;SDS011;25426;53.478;10.190;2023-09-18T07:23:45;7.45;;;6.85;;
39740;SDS011;25426;53.478;10.190;2023-09-18T07:26:17;7.60;;;6.80;;
39740;SDS011;25426;53.478;10.190;2023-09-18T07:28:48;7.07;;;6.43;;
39740;SDS011;25426;53.478;10.190;2023-09-18T07:31:19;7.32;;;6.72;;
39740;SDS011;25426;53.478;10.190;2023-09-18T07:33:50;7.72;;;6.90;;
39740;SDS011;25426;53.478;10.190;2023-09-18T07:36:23;7.22;;;6.53;;
39740;SDS011;25426;53.478;10.190;2023-09-18T07:38:53;6.35;;;5.75;;
39740;SDS011;25426;53.478;10.190;2023-09-18T07:41:26;6.85;;;6.22;;
39740;SDS011;25426;53.478;10.190;2023-09-18T07:43:57;7.28;;;6.25;;
39740;SDS011;25426;53.478;10.190;2023-09-18T07:46:29;8.35;;;6.60;;
39740;SDS011;25426;53.478;10.190;2023-09-18T07:49:00;6.80;;;6.22;;
39740;SDS011;25426;53.478;10.190;2023-09-18T07:51:31;9.50;;;6.30;;
39740;SDS011;25426;53.478;10.190;2023-09-18T07:54:01;6.95;;;6.32;;
39740;SDS011;25426;53.478;10.190;2023-09-18T07:56:32;6.40;;;5.90;;
39740;SDS011;25426;53.478;10.190;2023-09-18T07:59:04;6.82;;;6.25;;
39740;SDS011;25426;53.478;10.190;2023-09-18T08:01:35;6.82;;;6.18;;
39740;SDS011;25426;53.478;10.190;2023-09-18T08:04:06;7.53;;;6.68;;
39740;SDS011;25426;53.478;10.190;2023-09-18T08:06:39;6.80;;;6.15;;
39740;SDS011;25426;53.478;10.190;2023-09-18T08:09:11;6.20;;;5.60;;
39740;SDS011;25426;53.478;10.190;2023-09-18T08:11:45;6.60;;;5.90;;
39740;SDS011;25426;53.478;10.190;2023-09-18T08:14:16;6.47;;;5.80;;
39740;SDS011;25426;53.478;10.190;2023-09-18T08:16:47;7.63;;;5.65;;
39740;SDS011;25426;53.478;10.190;2023-09-18T08:19:18;6.80;;;5.90;;
39740;SDS011;25426;53.478;10.190;2023-09-18T08:21:49;7.28;;;6.50;;
39740;SDS011;25426;53.478;10.190;2023-09-18T08:24:22;6.97;;;6.28;;
39740;SDS011;25426;53.478;10.190;2023-09-18T08:26:53;6.03;;;5.47;;
39740;SDS011;25426;53.478;10.190;2023-09-18T08:29:25;6.80;;;6.25;;
39740;SDS011;25426;53.478;10.190;2023-09-18T08:31:59;7.28;;;6.30;;
39740;SDS011;25426;53.478;10.190;2023-09-18T08:34:30;8.10;;;5.95;;
39740;SDS011;25426;53.478;10.190;2023-09-18T08:37:02;7.07;;;6.47;;
39740;SDS011;25426;53.478;10.190;2023-09-18T08:39:33;7.95;;;6.97;;
39740;SDS011;25426;53.478;10.190;2023-09-18T08:42:32;7.82;;;6.57;;
39740;SDS011;25426;53.478;10.190;2023-09-18T08:45:05;6.75;;;6.15;;
39740;SDS011;25426;53.478;10.190;2023-09-18T08:48:26;11.50;;;7.10;;
39740;SDS011;25426;53.478;10.190;2023-09-18T08:51:10;7.60;;;6.90;;
39740;SDS011;25426;53.478;10.190;2023-09-18T08:53:54;6.72;;;6.13;;
39740;SDS011;25426;53.478;10.190;2023-09-18T08:56:25;7.70;;;6.95;;
39740;SDS011;25426;53.478;10.190;2023-09-18T08:59:03;7.05;;;6.38;;
39740;SDS011;25426;53.478;10.190;2023-09-18T09:01:34;6.78;;;6.15;;
39740;SDS011;25426;53.478;10.190;2023-09-18T09:04:05;6.35;;;5.75;;
39740;SDS011;25426;53.478;10.190;2023-09-18T09:06:36;8.65;;;6.30;;
39740;SDS011;25426;53.478;10.190;2023-09-18T09:09:07;7.13;;;5.65;;
39740;SDS011;25426;53.478;10.190;2023-09-18T09:11:38;7.53;;;6.00;;
39740;SDS011;25426;53.478;10.190;2023-09-18T09:14:10;6.65;;;6.05;;
39740;SDS011;25426;53.478;10.190;2023-09-18T09:16:51;6.65;;;6.05;;
39740;SDS011;25426;53.478;10.190;2023-09-18T09:19:29;12.02;;;6.13;;
39740;SDS011;25426;53.478;10.190;2023-09-18T09:22:02;6.72;;;5.97;;
39740;SDS011;25426;53.478;10.190;2023-09-18T09:27:11;6.13;;;5.53;;
39740;SDS011;25426;53.478;10.190;2023-09-18T09:29:57;11.32;;;5.68;;
39740;SDS011;25426;53.478;10.190;2023-09-18T09:32:31;7.10;;;5.78;;
39740;SDS011;25426;53.478;10.190;2023-09-18T09:35:03;6.35;;;5.72;;
39740;SDS011;25426;53.478;10.190;2023-09-18T09:37:37;6.43;;;5.78;;
39740;SDS011;25426;53.478;10.190;2023-09-18T09:40:09;7.88;;;5.55;;
39740;SDS011;25426;53.478;10.190;2023-09-18T09:42:44;7.97;;;5.75;;
39740;SDS011;25426;53.478;10.190;2023-09-18T09:45:16;5.88;;;5.38;;
39740;SDS011;25426;53.478;10.190;2023-09-18T09:47:47;5.43;;;4.93;;
39740;SDS011;25426;53.478;10.190;2023-09-18T09:50:18;5.75;;;5.07;;
39740;SDS011;25426;53.478;10.190;2023-09-18T09:52:50;6.25;;;5.55;;
39740;SDS011;25426;53.478;10.190;2023-09-18T09:55:30;8.30;;;5.93;;
39740;SDS011;25426;53.478;10.190;2023-09-18T09:58:05;6.15;;;5.50;;
39740;SDS011;25426;53.478;10.190;2023-09-18T10:00:45;6.55;;;5.53;;
39740;SDS011;25426;53.478;10.190;2023-09-18T10:03:22;5.43;;;4.70;;
39740;SDS011;25426;53.478;10.190;2023-09-18T10:05:53;10.95;;;5.22;;
39740;SDS011;25426;53.478;10.190;2023-09-18T10:08:25;5.63;;;5.00;;
39740;SDS011;25426;53.478;10.190;2023-09-18T10:11:00;6.20;;;5.32;;
39740;SDS011;25426;53.478;10.190;2023-09-18T10:13:53;6.68;;;5.45;;
39740;SDS011;25426;53.478;10.190;2023-09-18T10:16:32;6.03;;;5.13;;
39740;SDS011;25426;53.478;10.190;2023-09-18T10:19:09;8.13;;;4.93;;
39740;SDS011;25426;53.478;10.190;2023-09-18T10:22:11;7.03;;;5.60;;
39740;SDS011;25426;53.478;10.190;2023-09-18T10:25:19;6.97;;;5.50;;
39740;SDS011;25426;53.478;10.190;2023-09-18T10:27:57;5.22;;;4.72;;
39740;SDS011;25426;53.478;10.190;2023-09-18T10:30:32;5.97;;;5.47;;
39740;SDS011;25426;53.478;10.190;2023-09-18T10:33:04;6.97;;;5.03;;
39740;SDS011;25426;53.478;10.190;2023-09-18T10:35:37;7.93;;;5.68;;
39740;SDS011;25426;53.478;10.190;2023-09-18T10:38:08;10.40;;;5.22;;
39740;SDS011;25426;53.478;10.190;2023-09-18T10:40:40;5.43;;;4.88;;
39740;SDS011;25426;53.478;10.190;2023-09-18T10:43:11;5.55;;;5.03;;
39740;SDS011;25426;53.478;10.190;2023-09-18T10:45:42;8.45;;;4.60;;
39740;SDS011;25426;53.478;10.190;2023-09-18T10:48:14;7.25;;;5.05;;
39740;SDS011;25426;53.478;10.190;2023-09-18T10:50:49;5.38;;;4.88;;
39740;SDS011;25426;53.478;10.190;2023-09-18T10:53:20;5.40;;;4.90;;
39740;SDS011;25426;53.478;10.190;2023-09-18T10:55:52;7.93;;;5.13;;
39740;SDS011;25426;53.478;10.190;2023-09-18T10:58:23;5.63;;;4.65;;
39740;SDS011;25426;53.478;10.190;2023-09-18T11:00:59;6.55;;;4.70;;
39740;SDS011;25426;53.478;10.190;2023-09-18T11:03:30;5.65;;;4.78;;
39740;SDS011;25426;53.478;10.190;2023-09-18T11:06:07;6.30;;;4.60;;
39740;SDS011;25426;53.478;10.190;2023-09-18T11:08:45;9.98;;;5.07;;
39740;SDS011;25426;53.478;10.190;2023-09-18T11:11:19;8.27;;;5.28;;
39740;SDS011;25426;53.478;10.190;2023-09-18T11:13:51;6.93;;;4.60;;
39740;SDS011;25426;53.478;10.190;2023-09-18T11:21:31;8.20;;;5.05;;
39740;SDS011;25426;53.478;10.190;2023-09-18T11:24:04;7.82;;;5.35;;
39740;SDS011;25426;53.478;10.190;2023-09-18T11:26:53;6.40;;;4.95;;
39740;SDS011;25426;53.478;10.190;2023-09-18T11:29:24;6.07;;;5.47;;
39740;SDS011;25426;53.478;10.190;2023-09-18T11:31:58;6.00;;;4.75;;
39740;SDS011;25426;53.478;10.190;2023-09-18T11:34:32;6.03;;;4.78;;
39740;SDS011;25426;53.478;10.190;2023-09-18T11:37:19;6.82;;;5.15;;
39740;SDS011;25426;53.478;10.190;2023-09-18T11:39:50;6.68;;;5.32;;
39740;SDS011;25426;53.478;10.190;2023-09-18T11:42:21;6.85;;;5.07;;
39740;SDS011;25426;53.478;10.190;2023-09-18T11:44:52;7.85;;;4.47;;
39740;SDS011;25426;53.478;10.190;2023-09-18T11:47:23;7.60;;;5.20;;
39740;SDS011;25426;53.478;10.190;2023-09-18T11:49:58;8.40;;;4.68;;
39740;SDS011;25426;53.478;10.190;2023-09-18T11:52:29;9.25;;;4.28;;
39740;SDS011;25426;53.478;10.190;2023-09-18T11:55:03;7.25;;;4.50;;
39740;SDS011;25426;53.478;10.190;2023-09-18T11:57:37;6.10;;;4.20;;
39740;SDS011;25426;53.478;10.190;2023-09-18T12:00:21;8.15;;;4.68;;
39740;SDS011;25426;53.478;10.190;2023-09-18T12:02:53;10.00;;;4.57;;
39740;SDS011;25426;53.478;10.190;2023-09-18T12:05:25;6.65;;;4.07;;
39740;SDS011;25426;53.478;10.190;2023-09-18T12:07:56;7.30;;;3.95;;
39740;SDS011;25426;53.478;10.190;2023-09-18T12:10:27;8.32;;;3.40;;
39740;SDS011;25426;53.478;10.190;2023-09-18T12:12:58;12.02;;;3.35;;
39740;SDS011;25426;53.478;10.190;2023-09-18T12:15:29;5.63;;;3.55;;
39740;SDS011;25426;53.478;10.190;2023-09-18T12:18:07;7.05;;;3.67;;
39740;SDS011;25426;53.478;10.190;2023-09-18T12:20:46;11.15;;;3.53;;
39740;SDS011;25426;53.478;10.190;2023-09-18T12:23:20;5.05;;;3.15;;
39740;SDS011;25426;53.478;10.190;2023-09-18T12:25:56;4.60;;;2.90;;
39740;SDS011;25426;53.478;10.190;2023-09-18T12:28:30;7.22;;;2.97;;
39740;SDS011;25426;53.478;10.190;2023-09-18T12:31:02;4.88;;;2.50;;
39740;SDS011;25426;53.478;10.190;2023-09-18T12:33:35;5.82;;;2.50;;
39740;SDS011;25426;53.478;10.190;2023-09-18T12:36:08;8.05;;;2.95;;
39740;SDS011;25426;53.478;10.190;2023-09-18T12:38:39;11.20;;;2.88;;
39740;SDS011;25426;53.478;10.190;2023-09-18T12:41:10;5.20;;;3.10;;
39740;SDS011;25426;53.478;10.190;2023-09-18T12:43:41;5.70;;;2.67;;
39740;SDS011;25426;53.478;10.190;2023-09-18T12:46:13;6.40;;;2.30;;
39740;SDS011;25426;53.478;10.190;2023-09-18T12:48:44;6.50;;;3.33;;
39740;SDS011;25426;53.478;10.190;2023-09-18T12:51:16;5.43;;;2.78;;
39740;SDS011;25426;53.478;10.190;2023-09-18T12:53:59;6.97;;;2.60;;
39740;SDS011;25426;53.478;10.190;2023-09-18T12:56:40;10.00;;;2.60;;
39740;SDS011;25426;53.478;10.190;2023-09-18T12:59:11;7.32;;;2.40;;
39740;SDS011;25426;53.478;10.190;2023-09-18T13:01:45;6.05;;;2.55;;
39740;SDS011;25426;53.478;10.190;2023-09-18T13:04:18;7.82;;;2.67;;
39740;SDS011;25426;53.478;10.190;2023-09-18T13:07:08;5.53;;;2.97;;
39740;SDS011;25426;53.478;10.190;2023-09-18T13:09:42;6.18;;;2.58;;
39740;SDS011;25426;53.478;10.190;2023-09-18T13:12:13;6.65;;;2.47;;
39740;SDS011;25426;53.478;10.190;2023-09-18T13:14:57;8.15;;;3.00;;
39740;SDS011;25426;53.478;10.190;2023-09-18T13:17:39;8.13;;;3.05;;
39740;SDS011;25426;53.478;10.190;2023-09-18T13:20:15;5.03;;;2.38;;
39740;SDS011;25426;53.478;10.190;2023-09-18T13:22:53;6.07;;;2.53;;
39740;SDS011;25426;53.478;10.190;2023-09-18T13:25:29;3.78;;;2.22;;
39740;SDS011;25426;53.478;10.190;2023-09-18T13:28:05;7.35;;;2.53;;
39740;SDS011;25426;53.478;10.190;2023-09-18T13:30:38;5.32;;;2.50;;
39740;SDS011;25426;53.478;10.190;2023-09-18T13:33:11;3.72;;;2.38;;
39740;SDS011;25426;53.478;10.190;2023-09-18T13:35:45;8.75;;;2.83;;
39740;SDS011;25426;53.478;10.190;2023-09-18T13:38:16;5.88;;;2.72;;
39740;SDS011;25426;53.478;10.190;2023-09-18T13:40:47;7.60;;;3.78;;
39740;SDS011;25426;53.478;10.190;2023-09-18T13:43:19;5.28;;;2.75;;
39740;SDS011;25426;53.478;10.190;2023-09-18T13:45:52;7.70;;;3.17;;
39740;SDS011;25426;53.478;10.190;2023-09-18T13:48:26;5.90;;;3.05;;
39740;SDS011;25426;53.478;10.190;2023-09-18T13:50:58;5.88;;;2.85;;
39740;SDS011;25426;53.478;10.190;2023-09-18T13:53:31;7.45;;;3.80;;
39740;SDS011;25426;53.478;10.190;2023-09-18T13:56:03;6.82;;;3.22;;
39740;SDS011;25426;53.478;10.190;2023-09-18T13:58:34;4.63;;;3.33;;
39740;SDS011;25426;53.478;10.190;2023-09-18T14:01:11;9.82;;;3.60;;
39740;SDS011;25426;53.478;10.190;2023-09-18T14:03:41;9.55;;;3.42;;
39740;SDS011;25426;53.478;10.190;2023-09-18T14:06:15;3.78;;;2.63;;
39740;SDS011;25426;53.478;10.190;2023-09-18T14:11:35;5.55;;;2.47;;
39740;SDS011;25426;53.478;10.190;2023-09-18T14:14:15;5.05;;;2.78;;
39740;SDS011;25426;53.478;10.190;2023-09-18T14:16:46;7.55;;;2.63;;
39740;SDS011;25426;53.478;10.190;2023-09-18T14:24:25;8.05;;;2.78;;
39740;SDS011;25426;53.478;10.190;2023-09-18T14:32:26;4.97;;;2.55;;
39740;SDS011;25426;53.478;10.190;2023-09-18T14:35:30;3.47;;;2.47;;
39740;SDS011;25426;53.478;10.190;2023-09-18T14:50:44;6.13;;;2.97;;
39740;SDS011;25426;53.478;10.190;2023-09-18T14:53:15;4.57;;;2.10;;
39740;SDS011;25426;53.478;10.190;2023-09-18T14:55:46;4.53;;;2.47;;
39740;SDS011;25426;53.478;10.190;2023-09-18T14:58:17;5.20;;;2.22;;
39740;SDS011;25426;53.478;10.190;2023-09-18T15:00:53;6.43;;;2.20;;
39740;SDS011;25426;53.478;10.190;2023-09-18T15:03:24;5.20;;;2.08;;
39740;SDS011;25426;53.478;10.190;2023-09-18T15:05:56;7.43;;;2.60;;
39740;SDS011;25426;53.478;10.190;2023-09-18T15:08:27;5.85;;;1.98;;
39740;SDS011;25426;53.478;10.190;2023-09-18T15:11:01;3.80;;;2.08;;
39740;SDS011;25426;53.478;10.190;2023-09-18T15:13:34;5.50;;;2.22;;
39740;SDS011;25426;53.478;10.190;2023-09-18T15:16:05;3.08;;;1.92;;
39740;SDS011;25426;53.478;10.190;2023-09-18T15:18:36;3.58;;;2.00;;
39740;SDS011;25426;53.478;10.190;2023-09-18T15:21:12;6.43;;;2.53;;
39740;SDS011;25426;53.478;10.190;2023-09-18T15:23:43;4.70;;;2.20;;
39740;SDS011;25426;53.478;10.190;2023-09-18T15:26:14;5.00;;;2.47;;
39740;SDS011;25426;53.478;10.190;2023-09-18T15:28:45;3.17;;;2.28;;
39740;SDS011;25426;53.478;10.190;2023-09-18T15:31:16;4.13;;;1.98;;
39740;SDS011;25426;53.478;10.190;2023-09-18T15:33:47;7.53;;;2.47;;
39740;SDS011;25426;53.478;10.190;2023-09-18T15:36:25;4.78;;;2.30;;
39740;SDS011;25426;53.478;10.190;2023-09-18T15:38:57;4.13;;;2.40;;
39740;SDS011;25426;53.478;10.190;2023-09-18T15:41:36;4.40;;;2.33;;
39740;SDS011;25426;53.478;10.190;2023-09-18T15:44:08;8.27;;;2.40;;
39740;SDS011;25426;53.478;10.190;2023-09-18T15:46:44;3.90;;;2.08;;
39740;SDS011;25426;53.478;10.190;2023-09-18T15:49:15;3.22;;;2.03;;
39740;SDS011;25426;53.478;10.190;2023-09-18T15:51:47;4.78;;;2.20;;
39740;SDS011;25426;53.478;10.190;2023-09-18T15:54:18;4.07;;;2.10;;
39740;SDS011;25426;53.478;10.190;2023-09-18T15:56:49;3.22;;;2.08;;
39740;SDS011;25426;53.478;10.190;2023-09-18T15:59:23;3.10;;;2.40;;
39740;SDS011;25426;53.478;10.190;2023-09-18T16:01:54;5.55;;;2.38;;
39740;SDS011;25426;53.478;10.190;2023-09-18T16:04:25;4.07;;;2.28;;
39740;SDS011;25426;53.478;10.190;2023-09-18T16:06:56;5.45;;;2.22;;
39740;SDS011;25426;53.478;10.190;2023-09-18T16:09:27;5.45;;;2.85;;
39740;SDS011;25426;53.478;10.190;2023-09-18T16:11:58;3.78;;;2.35;;
39740;SDS011;25426;53.478;10.190;2023-09-18T16:14:29;3.80;;;2.38;;
39740;SDS011;25426;53.478;10.190;2023-09-18T16:17:00;7.22;;;2.10;;
39740;SDS011;25426;53.478;10.190;2023-09-18T16:19:34;6.18;;;2.28;;
39740;SDS011;25426;53.478;10.190;2023-09-18T16:22:05;4.03;;;1.83;;
39740;SDS011;25426;53.478;10.190;2023-09-18T16:24:36;3.33;;;2.20;;
39740;SDS011;25426;53.478;10.190;2023-09-18T16:27:07;3.80;;;2.00;;
39740;SDS011;25426;53.478;10.190;2023-09-18T16:29:41;5.53;;;2.60;;
39740;SDS011;25426;53.478;10.190;2023-09-18T16:32:12;4.30;;;2.47;;
39740;SDS011;25426;53.478;10.190;2023-09-18T16:34:43;2.55;;;1.95;;
39740;SDS011;25426;53.478;10.190;2023-09-18T16:37:14;3.88;;;1.67;;
39740;SDS011;25426;53.478;10.190;2023-09-18T16:39:45;4.13;;;2.25;;
39740;SDS011;25426;53.478;10.190;2023-09-18T16:42:16;4.60;;;2.30;;
39740;SDS011;25426;53.478;10.190;2023-09-18T16:44:47;7.90;;;2.40;;
39740;SDS011;25426;53.478;10.190;2023-09-18T16:47:18;7.15;;;2.50;;
39740;SDS011;25426;53.478;10.190;2023-09-18T16:49:51;3.38;;;2.40;;
39740;SDS011;25426;53.478;10.190;2023-09-18T16:52:21;3.72;;;1.95;;
39740;SDS011;25426;53.478;10.190;2023-09-18T16:54:53;4.05;;;1.98;;
39740;SDS011;25426;53.478;10.190;2023-09-18T16:57:25;7.47;;;2.22;;
39740;SDS011;25426;53.478;10.190;2023-09-18T16:59:56;4.80;;;2.13;;
39740;SDS011;25426;53.478;10.190;2023-09-18T17:02:27;6.65;;;2.22;;
39740;SDS011;25426;53.478;10.190;2023-09-18T17:04:59;5.95;;;2.78;;
39740;SDS011;25426;53.478;10.190;2023-09-18T17:07:30;3.97;;;2.50;;
39740;SDS011;25426;53.478;10.190;2023-09-18T17:10:01;5.68;;;2.67;;
39740;SDS011;25426;53.478;10.190;2023-09-18T17:12:34;6.43;;;2.38;;
39740;SDS011;25426;53.478;10.190;2023-09-18T17:15:08;6.28;;;1.98;;
39740;SDS011;25426;53.478;10.190;2023-09-18T17:17:39;6.95;;;2.78;;
39740;SDS011;25426;53.478;10.190;2023-09-18T17:20:10;2.97;;;2.50;;
39740;SDS011;25426;53.478;10.190;2023-09-18T17:22:41;3.28;;;1.85;;
39740;SDS011;25426;53.478;10.190;2023-09-18T17:25:12;4.50;;;2.28;;
39740;SDS011;25426;53.478;10.190;2023-09-18T17:27:45;4.72;;;2.13;;
39740;SDS011;25426;53.478;10.190;2023-09-18T17:30:16;5.03;;;2.00;;
39740;SDS011;25426;53.478;10.190;2023-09-18T17:32:47;6.03;;;2.00;;
39740;SDS011;25426;53.478;10.190;2023-09-18T17:35:18;3.72;;;2.50;;
39740;SDS011;25426;53.478;10.190;2023-09-18T17:37:49;5.15;;;2.28;;
39740;SDS011;25426;53.478;10.190;2023-09-18T17:40:21;3.55;;;2.10;;
39740;SDS011;25426;53.478;10.190;2023-09-18T17:42:52;6.50;;;2.53;;
39740;SDS011;25426;53.478;10.190;2023-09-18T17:45:23;7.60;;;2.15;;
39740;SDS011;25426;53.478;10.190;2023-09-18T17:47:54;4.50;;;2.17;;
39740;SDS011;25426;53.478;10.190;2023-09-18T17:50:25;5.68;;;2.25;;
39740;SDS011;25426;53.478;10.190;2023-09-18T17:52:55;2.90;;;1.88;;
